Sant Martí Sacalm





Hora UTC 23:40
Temperatura 6.0 ºC
Humitat 100.0 %
Pressió 1014.7 hPa
Pluja 3.2 mm
Velocitat vent 11.7 km/h
Direcció vent NNE
Radiació solar 0.1 W/m²

Dades diàries 2020-03-31



Hora UTC (hivern +1h; estiu +2h)
Temperatura (ºC) Humitat (%) Pressió (hPa) Velocitat vent (km/h) Precipitació (mm) Radiació solar (W/m²)
Hora UTC Aire Humitat Pressió Vel. Dir. Vel. Max Dir. Intent. màx 5 min. Rad. Sol.
00:05 4.2 100.0 1012.8 10.0 NE 14.1 ENE 0.0 0.1
00:10 4.2 100.0 1012.8 12.2 NE 16.2 ENE 0.0 0.1
00:15 4.2 100.0 1012.8 10.7 NE 15.2 NE 0.0 0.1
00:20 4.2 100.0 1012.8 11.5 NE 17.3 ENE 0.0 0.1
00:25 4.1 100.0 1012.8 12.0 NNE 18.4 NE 0.0 0.1
00:30 4.1 100.0 1012.8 10.9 NNE 16.6 NNE 0.0 0.1
00:35 4.1 100.0 1012.7 11.7 NNE 17.3 NNE 0.0 0.1
00:40 4.1 100.0 1012.7 11.7 NNE 18.0 NNE 0.0 0.1
00:45 4.1 100.0 1012.7 11.4 NNE 17.0 NNE 0.0 0.1
00:50 4.1 100.0 1012.7 9.6 NNE 14.5 NE 0.0 0.1
00:55 4.1 100.0 1012.7 9.1 NE 13.4 NNE 0.0 0.1
01:00 4.1 100.0 1012.6 11.5 NNE 18.0 NNE 0.0 0.1
01:05 4.1 100.0 1012.6 10.9 NNE 15.9 NNE 0.0 0.1
01:10 4.1 100.0 1012.5 11.7 NE 16.6 NNE 0.0 0.1
01:15 4.1 99.9 1012.4 12.2 NNE 18.4 NNE 0.0 0.1
01:20 4.1 99.9 1012.4 10.9 NNE 15.5 NNE 0.0 0.1
01:25 4.1 100.0 1012.4 11.5 NE 16.2 NNE 0.0 0.1
01:30 4.1 100.0 1012.4 10.1 NE 15.9 N 0.0 0.1
01:35 4.1 100.0 1012.4 9.8 NNE 17.0 NNE 0.0 0.1
01:40 4.1 100.0 1012.3 8.7 NNE 13.8 NE 0.0 0.1
01:45 4.1 100.0 1012.3 8.8 NE 14.5 NNE 0.0 0.1
01:50 3.9 99.9 1012.2 10.3 NNE 17.0 NNE 0.0 0.1
01:55 3.9 99.8 1012.2 10.7 NNE 16.6 NNE 0.0 0.1
02:00 3.8 99.7 1012.1 11.0 NNE 20.5 NNE 0.0 0.1
02:05 3.7 99.2 1012.1 12.2 NNE 17.0 NNE 0.0 0.1
02:10 3.7 98.6 1012.2 10.2 NNE 16.6 NNE 0.0 0.1
02:15 3.7 98.7 1012.2 8.2 NNE 15.2 ENE 0.0 0.1
02:20 3.7 99.1 1012.2 8.8 NNE 14.8 NE 0.0 0.1
02:25 3.7 99.3 1012.1 9.9 NE 15.2 NE 0.0 0.1
02:30 3.7 99.4 1012.1 10.3 NE 15.2 NE 0.0 0.1
02:35 3.7 99.7 1012.1 10.8 NE 15.9 NE 0.0 0.1
02:40 3.7 99.9 1012.1 11.1 NE 16.6 NE 0.0 0.1
02:45 3.6 99.9 1012.0 11.4 NE 17.0 ENE 0.0 0.1
02:50 3.5 99.9 1012.1 11.0 NE 16.2 NE 0.0 0.1
02:55 3.7 100.0 1012.1 11.6 NE 16.6 NNE 0.0 0.1
03:00 3.6 100.0 1012.1 10.5 NE 14.5 ENE 0.0 0.1
03:05 3.6 100.0 1012.1 10.3 NE 15.5 NE 0.0 0.1
03:10 3.6 100.0 1012.2 9.2 NNE 13.8 NNE 0.0 0.1
03:15 3.5 100.0 1012.2 10.9 NNE 16.2 NE 0.0 0.1
03:20 3.5 100.0 1012.2 10.8 NNE 15.9 NNE 0.0 0.1
03:25 3.4 100.0 1012.2 10.3 NE 17.0 NNE 0.0 0.1
03:30 3.5 100.0 1012.1 11.5 NNE 19.1 NNE 0.0 0.1
03:35 3.4 100.0 1012.1 13.8 NNE 20.5 NNE 0.0 0.1
03:40 3.3 100.0 1012.1 12.3 NNE 20.1 NNE 0.0 0.1
03:45 3.3 100.0 1012.2 11.2 NNE 17.7 NNE 0.0 0.1
03:50 3.3 100.0 1012.2 10.3 NNE 17.0 NE 0.0 0.1
03:55 3.2 100.0 1012.2 13.0 NNE 21.5 NNE 0.0 0.1
04:00 3.2 100.0 1012.2 10.5 NNE 18.4 NNE 0.0 0.1
04:05 3.2 100.0 1012.3 11.3 NNE 16.2 NNE 0.0 0.1
04:10 3.2 100.0 1012.3 12.1 NNE 18.0 NNE 0.0 0.1
04:15 3.1 99.7 1012.3 11.0 NNE 17.0 NNE 0.0 0.1
04:20 3.2 99.5 1012.3 9.6 NNE 15.5 NNE 0.0 0.1
04:25 3.2 99.3 1012.3 9.8 NNE 15.5 N 0.0 0.1
04:30 3.2 99.2 1012.4 9.0 NNE 12.0 N 0.0 0.1
04:35 3.3 99.0 1012.3 9.1 NNE 13.1 NNE 0.0 0.1
04:40 3.3 98.8 1012.4 8.8 NNE 13.4 NNE 0.0 0.1
04:45 3.4 98.7 1012.4 9.0 N 14.5 NNE 0.0 0.1
04:50 3.5 98.1 1012.3 12.2 N 17.7 NNE 0.0 0.1
04:55 3.5 98.2 1012.3 10.9 NNE 17.0 NNE 0.0 0.1
05:00 3.5 98.5 1012.3 12.9 N 18.4 N 0.0 0.1
05:05 3.6 98.2 1012.2 15.6 NNE 21.9 NNE 0.0 0.1
05:10 3.6 98.2 1012.1 14.3 NNE 20.8 NNE 0.0 0.1
05:15 3.6 98.6 1012.1 12.5 NNE 18.0 NNE 0.0 0.1
05:20 3.6 98.7 1012.1 15.4 NNE 25.8 NNE 0.0 0.1
05:25 3.6 98.3 1012.0 16.2 NNE 26.5 N 0.0 0.3
05:30 3.6 98.5 1012.0 16.9 NNE 22.6 NNE 0.0 0.5
05:35 3.5 98.3 1012.1 16.8 NNE 24.4 NNE 0.0 0.9
05:40 3.6 98.1 1012.2 15.9 NNE 23.0 0.0 2.1
05:45 3.6 97.8 1012.3 13.1 NNE 21.2 N 0.0 4.2
05:50 3.6 98.1 1012.4 12.9 NNE 19.1 N 0.0 6.2
05:55 3.7 97.7 1012.5 13.9 NNE 20.1 NNE 0.0 8.5
06:00 3.7 97.1 1012.6 13.7 NNE 19.1 NNE 0.0 12.7
06:05 3.8 96.9 1012.6 13.4 NNE 19.1 NNE 0.0 20.2
06:10 3.8 97.1 1012.7 13.9 NNE 19.8 NNE 0.0 18.5
06:15 3.9 97.1 1012.7 14.0 NNE 20.1 N 0.0 27.1
06:20 3.9 97.3 1012.9 11.9 N 17.0 NE 0.0 31.5
06:25 4.0 96.8 1013.0 9.1 NNE 15.2 NNE 0.0 32.4
06:30 4.1 96.8 1013.1 9.8 NNE 15.9 N 0.0 39.1
06:35 4.1 96.8 1013.0 11.8 NNE 16.6 N 0.0 51.7
06:40 4.2 96.1 1013.0 14.8 NNE 20.1 NNE 0.0 53.3
06:45 4.2 96.4 1013.0 13.3 NNE 20.8 NNE 0.0 58.1
06:50 4.3 95.8 1013.0 13.2 NNE 21.5 NNE 0.0 60.4
06:55 4.3 95.5 1013.0 11.2 NNE 17.0 NNE 0.0 72.7
07:00 4.5 96.0 1013.0 8.7 NNE 14.5 N 0.0 92.6
07:05 4.5 95.5 1012.9 13.1 NNE 19.8 NNE 0.0 109.5
07:10 4.6 96.2 1012.9 9.2 NNE 14.8 NNE 0.0 123.6
07:15 4.7 96.1 1012.8 13.1 NNE 24.7 NNE 0.0 139.8
07:20 4.7 95.1 1012.8 15.4 NNE 25.4 NNE 0.0 150.2
07:25 4.8 96.0 1012.8 12.7 NNE 25.1 NNE 0.0 153.2
07:30 4.8 95.9 1012.8 13.1 NNE 22.6 N 0.0 141.0
07:35 4.8 95.1 1012.8 14.0 NNE 21.2 NNE 0.0 145.0
07:40 4.9 95.7 1012.9 10.8 NE 18.4 NNE 0.0 134.2
07:45 5.0 96.2 1012.9 10.1 NNE 17.7 NNE 0.0 144.8
07:50 5.2 96.9 1012.9 7.8 NNE 15.5 NE 0.0 147.3
07:55 5.3 96.1 1013.0 10.8 NE 16.6 NE 0.0 163.9
08:00 5.3 96.4 1013.0 12.7 NNE 19.1 NE 0.0 177.5
08:05 5.4 96.7 1013.0 11.0 NNE 17.7 NNE 0.0 172.4
08:10 5.4 96.9 1013.0 11.7 NNE 16.6 NNE 0.0 183.6
08:15 5.5 97.0 1013.0 12.5 NNE 18.7 NNE 0.0 196.2
08:20 5.6 97.1 1013.0 12.2 NNE 20.5 NNE 0.0 217.8
08:25 5.6 97.4 1013.1 12.1 NNE 17.7 NE 0.0 264.5
08:30 5.8 97.2 1013.1 12.3 NNE 18.7 NNE 0.0 274.1
08:35 6.0 96.7 1013.1 9.6 NE 15.2 NE 0.0 346.2
08:40 6.2 95.1 1013.2 11.1 NE 18.4 NNE 0.0 273.6
08:45 6.2 94.8 1013.2 9.3 NE 16.2 NE 0.0 239.5
08:50 6.4 94.5 1013.2 9.9 NNE 17.3 NE 0.0 274.1
08:55 6.3 93.9 1013.2 11.7 NNE 18.0 NNE 0.0 356.5
09:00 6.6 93.8 1013.3 11.5 NNE 18.0 NNE 0.0 438.5
09:05 6.9 92.6 1013.3 10.2 NNE 16.6 NNE 0.0 333.8
09:10 6.9 92.1 1013.3 10.4 NE 16.6 NE 0.0 277.3
09:15 6.6 92.4 1013.3 12.2 NNE 20.8 NNE 0.0 228.7
09:20 6.5 92.9 1013.3 12.4 NNE 18.0 NNE 0.0 234.2
09:25 6.5 93.1 1013.3 11.5 NNE 17.0 NNE 0.0 180.7
09:30 6.4 92.8 1013.3 13.2 NNE 19.8 NNE 0.0 150.1
09:35 6.2 93.2 1013.4 12.6 NNE 20.1 NE 0.0 155.2
09:40 6.3 93.6 1013.4 11.7 NE 20.1 NE 0.0 127.5
09:45 6.2 93.1 1013.4 13.8 NNE 19.4 NNE 0.0 116.7
09:50 6.1 93.1 1013.4 15.5 NNE 22.6 NNE 0.0 110.6
09:55 6.1 93.8 1013.4 11.2 NE 18.4 NE 0.0 105.9
10:00 6.1 93.9 1013.4 12.7 NNE 20.8 NNE 0.0 106.7
10:05 6.1 94.7 1013.4 11.8 NNE 20.8 NNE 0.0 95.0
10:10 6.1 94.7 1013.4 13.6 NNE 18.7 NNE 0.0 86.1
10:15 6.1 95.4 1013.5 11.9 NE 18.7 NE 0.0 80.9
10:20 6.1 95.7 1013.5 11.7 NNE 17.3 NE 0.0 87.9
10:25 6.2 96.0 1013.5 11.0 NNE 17.7 ENE 0.0 92.0
10:30 6.2 96.0 1013.5 10.6 NE 17.0 NE 0.0 100.9
10:35 6.3 95.6 1013.5 9.5 NE 16.6 NE 0.0 103.0
10:40 6.3 95.5 1013.5 10.8 NE 19.4 NE 0.0 107.0
10:45 6.4 95.4 1013.5 12.1 NE 17.7 NE 0.0 132.4
10:50 6.4 95.3 1013.5 11.9 NNE 19.4 NE 0.0 150.7
10:55 6.5 95.5 1013.4 11.9 NE 21.2 NNE 0.0 178.3
11:00 6.6 96.0 1013.3 11.8 NNE 19.1 NNE 0.0 197.2
11:05 6.8 95.4 1013.3 12.3 NNE 18.7 N 0.0 200.5
11:10 6.9 95.1 1013.3 13.6 NNE 20.8 NNE 0.0 232.2
11:15 7.0 95.0 1013.3 14.0 NNE 26.1 NNE 0.0 262.6
11:20 7.1 94.3 1013.3 12.8 NNE 24.0 NNE 0.0 260.3
11:25 7.4 94.1 1013.3 11.1 NNE 18.7 N 0.0 256.8
11:30 7.4 93.7 1013.3 13.3 NNE 23.0 N 0.0 232.0
11:35 7.4 93.4 1013.2 14.7 NNE 25.8 NNE 0.0 231.3
11:40 7.4 93.4 1013.2 13.6 NE 25.1 NNE 0.0 238.7
11:45 7.5 93.3 1013.2 13.2 NE 21.5 NE 0.0 243.6
11:50 7.5 92.7 1013.2 15.2 NNE 22.6 NNE 0.0 257.3
11:55 7.6 92.9 1013.1 13.4 NNE 23.0 NE 0.0 273.7
12:00 7.6 92.5 1013.1 15.6 NNE 26.8 NNE 0.0 241.7
12:05 7.6 92.1 1013.0 19.6 NNE 28.9 NNE 0.0 206.4
12:10 7.3 91.4 1012.9 22.1 NNE 33.9 NNE 0.0 177.9
12:15 7.3 92.1 1013.1 15.3 NNE 29.7 NE 0.0 172.2
12:20 7.4 92.1 1013.1 16.4 N 24.7 NNE 0.0 169.3
12:25 7.4 92.2 1013.2 13.0 N 24.7 NNE 0.0 172.2
12:30 7.5 91.9 1013.2 14.5 NNE 22.2 NNE 0.0 179.8
12:35 7.5 91.7 1013.2 17.4 NNE 27.9 NNE 0.0 189.2
12:40 7.6 91.7 1013.2 15.1 NNE 23.7 NNE 0.0 180.5
12:45 7.6 91.5 1013.2 15.4 NNE 23.3 NNE 0.0 174.3
12:50 7.8 92.2 1013.3 11.8 NNE 22.2 NE 0.0 166.5
12:55 7.8 91.5 1013.4 12.9 NNE 18.4 NNE 0.0 166.4
13:00 7.8 91.9 1013.4 11.3 NE 18.4 NNE 0.0 148.5
13:05 7.9 91.9 1013.4 11.0 NNE 19.8 N 0.0 115.1
13:10 7.8 92.2 1013.4 11.4 NNE 17.7 NE 0.0 90.5
13:15 7.6 92.3 1013.3 13.6 NE 21.5 NNE 0.0 87.9
13:20 7.5 93.1 1013.3 13.8 NE 24.7 NE 0.0 89.9
13:25 7.5 94.1 1013.3 13.6 NE 25.4 NE 0.0 90.4
13:30 7.4 94.0 1013.2 14.2 NNE 24.4 ENE 0.0 93.6
13:35 7.4 94.8 1013.3 14.5 NE 25.1 NNE 0.0 110.0
13:40 7.3 96.3 1013.3 13.3 NE 20.5 NNE 0.0 123.9
13:45 7.3 97.6 1013.3 13.4 NE 20.8 NNE 0.0 142.0
13:50 7.3 98.1 1013.3 13.6 NE 20.5 NE 0.0 126.5
13:55 7.3 98.5 1013.2 13.8 NNE 20.8 NE 0.0 138.4
14:00 7.3 98.8 1013.2 12.9 NNE 23.0 NNE 0.0 148.5
14:05 7.3 98.7 1013.2 14.3 NNE 21.2 NE 0.0 145.1
14:10 7.3 98.9 1013.2 14.6 NNE 21.2 NE 0.0 126.5
14:15 7.2 99.1 1013.2 14.5 NE 20.8 ENE 0.0 130.1
14:20 7.2 99.4 1013.1 12.9 NE 18.7 N 0.0 149.7
14:25 7.2 99.4 1013.1 13.4 NNE 20.8 NNE 0.0 154.7
14:30 7.2 99.5 1013.1 12.3 NE 20.1 NE 0.0 136.3
14:35 7.2 99.5 1013.0 15.6 NE 21.2 NE 0.0 128.7
14:40 7.1 99.4 1013.0 14.2 NE 21.5 NE 0.0 127.3
14:45 7.1 99.4 1012.9 13.5 NNE 23.0 NE 0.0 108.8
14:50 7.2 99.5 1012.9 11.6 NNE 23.0 NE 0.0 83.2
14:55 7.2 99.3 1013.0 10.5 NE 19.8 ENE 0.0 75.8
15:00 7.2 99.3 1013.0 12.8 NE 21.5 NE 0.0 80.4
15:05 7.2 99.3 1013.1 13.3 NE 21.5 NE 0.0 91.6
15:10 7.2 99.2 1013.1 11.1 NE 18.0 NE 0.0 104.6
15:15 7.3 99.1 1013.2 11.7 NE 17.3 NE 0.0 97.5
15:20 7.2 99.0 1013.2 11.4 NE 16.2 NNE 0.0 99.8
15:25 7.1 99.1 1013.3 11.1 NNE 15.9 NNE 0.0 118.0
15:30 7.1 99.1 1013.3 9.5 NNE 14.5 NE 0.0 111.6
15:35 7.0 98.9 1013.3 9.5 NNE 14.5 NNE 0.0 101.0
15:40 7.1 98.9 1013.3 9.7 NE 14.8 NE 0.0 88.9
15:45 7.0 98.9 1013.3 9.7 NNE 14.1 NNE 0.0 98.1
15:50 7.0 99.1 1013.3 11.6 NNE 17.0 NNE 0.0 107.6
15:55 7.0 99.3 1013.3 10.6 NNE 17.3 NE 0.0 107.4
16:00 7.0 99.4 1013.3 11.1 NNE 17.0 NNE 0.0 95.7
16:05 6.9 99.5 1013.3 12.5 NNE 17.0 NE 0.0 89.0
16:10 6.9 99.7 1013.2 13.1 NNE 19.4 NE 0.0 90.5
16:15 6.9 99.8 1013.2 13.9 NNE 19.4 NNE 0.0 95.5
16:20 6.9 99.9 1013.2 14.5 NNE 23.3 NE 0.0 91.1
16:25 6.8 99.9 1013.1 16.2 NE 24.0 NNE 0.0 86.8
16:30 6.9 100.0 1013.1 15.5 NNE 25.1 NNE 0.0 72.2
16:35 6.8 100.0 1013.1 16.1 NNE 24.4 NNE 0.0 67.2
16:40 6.8 100.0 1013.1 15.9 NE 26.8 NE 0.0 53.0
16:45 6.8 100.0 1013.2 17.2 NE 28.2 NE 0.0 41.3
16:50 6.7 100.0 1013.2 14.9 NNE 25.4 NNE 0.0 32.5
16:55 6.6 100.0 1013.3 16.8 NNE 26.1 NNE 0.0 19.3
17:00 6.6 100.0 1013.3 16.6 NNE 26.5 NNE 0.0 14.3
17:05 6.5 100.0 1013.4 14.0 NNE 24.7 NNE 0.0 11.8
17:10 6.4 100.0 1013.4 14.7 NNE 27.2 NNE 0.0 12.9
17:15 6.3 100.0 1013.4 13.9 NNE 21.2 NNE 0.0 13.5
17:20 6.2 100.0 1013.5 16.6 NNE 25.1 NNE 0.0 12.8
17:25 5.9 100.0 1013.5 15.5 NNE 25.4 N 0.0 12.8
17:30 5.8 100.0 1013.5 18.0 N 26.8 N 0.0 11.9
17:35 5.8 99.9 1013.5 17.4 NNE 24.4 N 0.0 11.3
17:40 5.8 99.4 1013.5 15.1 NNE 22.6 N 0.0 12.3
17:45 5.9 97.4 1013.6 15.4 NNE 24.0 N 0.0 10.9
17:50 6.0 95.8 1013.6 13.9 NNE 23.3 NNE 0.0 7.4
17:55 6.0 95.8 1013.6 16.4 NNE 25.8 NNE 0.0 5.4
18:00 5.9 96.9 1013.7 13.2 NNE 21.5 NNE 0.1 3.8
18:05 5.9 96.6 1013.7 13.6 NNE 22.2 NNE 0.0 2.6
18:10 5.8 96.3 1013.8 13.5 NNE 23.3 NNE 0.0 1.4
18:15 5.8 96.0 1013.9 12.6 NNE 19.4 NNE 0.0 0.7
18:20 5.7 96.6 1014.0 11.8 NE 17.7 NNE 0.0 0.5
18:25 5.7 97.6 1014.0 10.5 NNE 16.6 NE 0.1 0.3
18:30 5.6 97.8 1014.0 11.3 NE 18.0 NE 0.0 0.2
18:35 5.6 97.8 1014.1 12.0 NE 18.0 NNE 0.0 0.1
18:40 5.6 98.2 1014.1 11.6 NNE 17.3 NNE 0.0 0.1
18:45 5.6 98.5 1014.2 11.4 NE 16.2 NNE 0.1 0.1
18:50 5.5 98.7 1014.3 11.5 NE 16.6 NE 0.1 0.1
18:55 5.5 99.0 1014.3 11.8 NNE 19.4 NNE 0.0 0.1
19:00 5.4 98.9 1014.4 10.0 NNE 15.5 NNE 0.0 0.1
19:05 5.4 98.9 1014.5 10.8 NE 16.2 NNE 0.1 0.1
19:10 5.4 98.9 1014.5 11.3 NNE 17.3 NNE 0.0 0.1
19:15 5.3 99.0 1014.5 10.4 NNE 15.5 NNE 0.0 0.1
19:20 5.3 98.9 1014.6 11.2 NNE 17.0 N 0.1 0.1
19:25 5.4 98.6 1014.6 11.1 NNE 15.5 NNE 0.0 0.1
19:30 5.4 98.7 1014.6 12.8 NNE 19.1 NNE 0.1 0.1
19:35 5.4 98.5 1014.6 13.0 NNE 19.4 NNE 0.0 0.1
19:40 5.4 98.7 1014.6 11.2 NE 17.3 NNE 0.1 0.1
19:45 5.5 98.9 1014.6 11.5 NNE 16.6 NNE 0.0 0.1
19:50 5.4 99.0 1014.6 12.0 NNE 17.0 NNE 0.1 0.1
19:55 5.5 99.0 1014.6 11.8 NE 16.2 NE 0.1 0.1
20:00 5.5 99.0 1014.7 11.2 NE 17.3 NE 0.1 0.1
20:05 5.5 99.1 1014.7 11.4 NE 17.3 ENE 0.0 0.1
20:10 5.6 99.0 1014.7 11.6 NE 18.4 ENE 0.1 0.1
20:15 5.6 99.0 1014.7 10.2 NE 16.2 NE 0.1 0.1
20:20 5.5 99.0 1014.8 11.0 NE 15.9 NE 0.1 0.1
20:25 5.5 99.2 1014.8 12.3 ENE 21.2 ENE 0.1 0.1
20:30 5.4 99.3 1014.8 11.6 NNE 17.0 NE 0.1 0.1
20:35 5.4 99.6 1014.9 9.6 NE 13.4 NE 0.1 0.1
20:40 5.3 99.7 1014.9 11.4 ENE 15.5 ENE 0.0 0.1
20:45 5.3 99.9 1014.8 12.5 NE 19.1 NE 0.1 0.1
20:50 5.4 100.0 1014.9 12.8 NE 19.4 NE 0.1 0.1
20:55 5.4 100.0 1014.9 11.9 NE 16.6 NNE 0.1 0.1
21:00 5.5 100.0 1014.9 12.0 NE 17.0 ENE 0.0 0.1
21:05 5.5 99.8 1014.9 13.0 NNE 18.4 NNE 0.1 0.1
21:10 5.5 99.7 1014.9 10.7 NE 16.2 NE 0.0 0.1
21:15 5.5 99.8 1014.9 12.8 NE 17.3 NE 0.0 0.1
21:20 5.6 99.6 1015.0 11.8 NNE 17.7 NNE 0.0 0.1
21:25 5.6 99.5 1015.0 12.2 NE 18.0 NNE 0.1 0.1
21:30 5.5 99.7 1014.9 11.0 NE 15.9 N 0.0 0.1
21:35 5.5 99.9 1014.9 9.6 NE 14.1 ENE 0.0 0.1
21:40 5.5 100.0 1014.9 10.3 NNE 16.6 ENE 0.0 0.1
21:45 5.6 99.9 1014.8 12.1 NNE 16.6 NNE 0.0 0.1
21:50 5.7 99.5 1014.8 11.4 NE 18.0 NE 0.0 0.1
21:55 5.8 99.4 1014.8 12.2 NE 19.1 NNE 0.0 0.1
22:00 5.8 99.4 1014.8 12.2 NE 20.5 NNE 0.0 0.1
22:05 5.8 99.6 1014.8 10.5 NE 19.4 NNE 0.0 0.1
22:10 5.8 99.5 1014.7 9.3 NE 15.2 NE 0.0 0.1
22:15 5.8 99.7 1014.8 9.5 NE 15.9 E 0.0 0.1
22:20 5.8 99.7 1014.8 10.8 ENE 16.6 ENE 0.0 0.1
22:25 5.8 99.6 1014.8 10.0 NE 17.0 NNE 0.1 0.1
22:30 5.8 99.5 1014.8 9.3 NNE 18.4 NNE 0.0 0.1
22:35 5.8 99.4 1014.8 8.2 NE 13.8 ENE 0.0 0.1
22:40 5.9 99.2 1014.8 9.8 NNE 17.0 NNE 0.1 0.1
22:45 5.8 99.3 1014.8 11.1 NE 18.0 NE 0.0 0.1
22:50 5.9 99.7 1014.8 11.4 NE 17.7 ENE 0.1 0.1
22:55 5.9 99.8 1014.8 12.5 NE 19.1 NE 0.0 0.1
23:00 5.9 99.9 1014.8 10.6 NE 19.1 ENE 0.1 0.1
23:05 6.0 100.0 1014.8 10.9 NE 17.0 ENE 0.1 0.1
23:10 6.1 100.0 1014.8 10.8 NNE 18.0 NNE 0.1 0.1
23:15 6.1 99.9 1014.7 11.6 NNE 17.7 NNE 0.1 0.1
23:20 6.0 100.0 1014.7 12.0 NE 20.5 NE 0.0 0.1
23:25 6.0 100.0 1014.7 10.5 NNE 17.7 NNE 0.1 0.1
23:30 6.0 100.0 1014.8 12.4 NNE 20.5 NNE 0.1 0.1
23:35 6.0 100.0 1014.7 11.1 NE 17.7 NNE 0.1 0.1
23:40 6.0 100.0 1014.7 11.7 NNE 20.8 NNE 0.0 0.1
Màxima 7.9 100.0 1015.0 22.1 NNE 33.9 NNE 0.1 438.5
Mínima 3.1 91.4 1012.0
Total 3.2